createdAt,value
2022-10-05T00:00:36.838Z,1.90
2022-10-05T00:10:43.148Z,2.07
2022-10-05T00:20:48.555Z,4.30
2022-10-05T00:30:56.930Z,5.33
2022-10-05T00:41:08.406Z,2.10
2022-10-05T00:51:29.354Z,2.50
2022-10-05T01:01:38.321Z,3.07
2022-10-05T01:11:53.023Z,1.27
2022-10-05T01:22:05.589Z,2.57
2022-10-05T01:32:20.336Z,2.87
2022-10-05T01:42:39.098Z,3.40
2022-10-05T01:52:52.473Z,1.20
2022-10-05T02:03:04.571Z,1.67
2022-10-05T02:13:15.413Z,2.10
2022-10-05T02:23:24.744Z,3.13
2022-10-05T02:33:32.696Z,2.53
2022-10-05T02:43:47.325Z,2.27
2022-10-05T02:54:05.487Z,2.27
2022-10-05T03:04:20.762Z,3.43
2022-10-05T03:14:34.197Z,1.63
2022-10-05T03:24:58.343Z,1.50
2022-10-05T03:35:10.546Z,1.30
2022-10-05T03:45:24.294Z,1.47
2022-10-05T03:55:37.171Z,1.70
2022-10-05T04:05:50.410Z,2.03
2022-10-05T04:16:07.698Z,1.47
2022-10-05T04:26:16.856Z,4.97
2022-10-05T04:36:27.888Z,3.90
2022-10-05T04:46:47.374Z,2.30
2022-10-05T04:56:57.143Z,2.60
2022-10-05T05:07:13.874Z,7.43
2022-10-05T05:17:37.255Z,4.77
2022-10-05T05:27:44.892Z,8.17
2022-10-05T05:38:04.175Z,9.87
2022-10-05T05:48:17.574Z,8.27
2022-10-05T05:58:26.701Z,7.47
2022-10-05T06:08:39.302Z,14.57
2022-10-05T06:18:49.726Z,5.03
2022-10-05T06:28:57.809Z,7.17
2022-10-05T06:39:23.909Z,6.73
2022-10-05T06:49:32.401Z,8.43
2022-10-05T06:59:46.003Z,9.70
2022-10-05T07:10:06.173Z,8.03
2022-10-05T07:20:22.631Z,8.23
2022-10-05T07:30:26.467Z,7.67
2022-10-05T07:40:39.198Z,7.83
2022-10-05T07:51:00.909Z,9.97
2022-10-05T08:01:12.942Z,6.40
2022-10-05T08:11:20.542Z,9.03
2022-10-05T08:21:32.490Z,7.87
2022-10-05T08:31:39.307Z,9.50
2022-10-05T08:42:37.237Z,10.93
2022-10-05T08:53:15.978Z,12.87
2022-10-05T09:04:11.552Z,9.30
2022-10-05T09:14:31.974Z,15.30
2022-10-05T09:24:56.413Z,10.17
2022-10-05T09:35:15.017Z,10.73
2022-10-05T09:46:00.706Z,10.37
2022-10-05T09:56:25.053Z,8.40
2022-10-05T10:07:11.528Z,8.27
2022-10-05T10:17:46.343Z,8.23
2022-10-05T10:28:34.227Z,7.75
2022-10-05T10:38:49.169Z,10.55
2022-10-05T10:49:03.479Z,8.90
2022-10-05T10:59:58.612Z,8.90
2022-10-05T11:10:40.312Z,6.38
2022-10-05T11:21:09.943Z,7.43
2022-10-05T11:31:47.496Z,3.72
2022-10-05T11:42:41.031Z,2.20
2022-10-05T11:52:51.535Z,2.92
2022-10-05T12:03:25.618Z,1.75
2022-10-05T12:13:41.645Z,2.70
2022-10-05T12:23:50.892Z,1.90
2022-10-05T12:34:05.100Z,1.98
2022-10-05T12:44:20.198Z,1.38
2022-10-05T12:54:38.411Z,1.92
2022-10-05T13:04:50.111Z,1.70
2022-10-05T13:15:06.993Z,1.77
2022-10-05T13:25:27.312Z,0.80
2022-10-05T13:35:46.745Z,1.15
2022-10-05T13:45:56.998Z,1.20
2022-10-05T13:56:13.392Z,1.38
2022-10-05T14:06:30.206Z,1.30
2022-10-05T14:16:35.670Z,1.67
2022-10-05T14:26:39.442Z,1.65
2022-10-05T14:36:57.791Z,1.38
2022-10-05T14:47:18.673Z,1.67
2022-10-05T14:57:32.026Z,1.70
2022-10-05T15:07:42.158Z,1.50
2022-10-05T15:17:54.652Z,4.18
2022-10-05T15:28:12.159Z,2.28
2022-10-05T15:38:25.319Z,1.70
2022-10-05T15:48:43.418Z,1.85
2022-10-05T15:58:58.426Z,1.67
2022-10-05T16:09:14.654Z,1.63
2022-10-05T16:19:29.275Z,1.83
2022-10-05T16:29:48.445Z,2.70
2022-10-05T16:39:59.875Z,1.50
2022-10-05T16:50:21.404Z,12.55
2022-10-05T17:00:40.733Z,3.40
2022-10-05T17:11:03.240Z,1.50
2022-10-05T17:21:16.689Z,1.70
2022-10-05T17:31:23.945Z,4.55
2022-10-05T17:41:30.252Z,3.05
2022-10-05T17:52:18.032Z,6.90
2022-10-05T18:02:28.893Z,7.28
2022-10-05T18:12:46.427Z,7.10
2022-10-05T18:22:53.702Z,2.33
2022-10-05T18:33:32.367Z,4.70
2022-10-05T18:43:46.337Z,3.75
2022-10-05T18:54:09.063Z,15.83
2022-10-05T19:04:26.476Z,1.87
2022-10-05T19:14:41.595Z,1.30
2022-10-05T19:25:13.684Z,0.85
2022-10-05T19:35:28.170Z,2.83
2022-10-05T19:45:38.674Z,1.70
2022-10-05T19:55:46.890Z,1.02
2022-10-05T20:05:53.037Z,0.80
2022-10-05T20:16:36.768Z,1.00
2022-10-05T20:27:05.814Z,1.75
2022-10-05T20:37:10.497Z,1.23
2022-10-05T20:47:15.506Z,0.98
2022-10-05T20:57:20.854Z,1.33
2022-10-05T21:07:25.901Z,0.70
2022-10-05T21:17:29.524Z,0.80
2022-10-05T21:27:34.797Z,0.88
2022-10-05T21:37:38.426Z,3.45
2022-10-05T21:47:43.367Z,2.30
2022-10-05T21:57:47.727Z,3.40
2022-10-05T22:07:52.777Z,1.27
2022-10-05T22:17:56.977Z,1.13
2022-10-05T22:28:03.098Z,0.73
2022-10-05T22:38:06.813Z,2.03
2022-10-05T22:48:11.903Z,2.33
2022-10-05T22:58:15.461Z,1.70
2022-10-05T23:08:20.482Z,2.13
2022-10-05T23:18:24.149Z,7.07
2022-10-05T23:28:30.090Z,1.37
2022-10-05T23:38:35.258Z,2.37
2022-10-05T23:48:40.745Z,1.83
2022-10-05T23:58:44.946Z,1.87
